Time;durP1;ratioP1;P1;durP2;ratioP2;P2;SDS_P1;SDS_P2;PMS_P1;PMS_P2;Temp;Humidity;BMP_temperature;BMP_pressure;BME280_temperature;BME280_humidity;BME280_pressure;Samples;Min_cycle;Max_cycle;Signal;HPM_P1;HPM_P2
2022/06/11 00:00:49;;;;;;;19.43;8.50;;;;;;;16.67;94.44;101998.69;5012324;28;20453;-44
2022/06/11 00:03:17;;;;;;;18.63;8.37;;;;;;;16.64;94.28;101996.41;5012605;28;20448;-45
2022/06/11 00:05:44;;;;;;;18.03;8.50;;;;;;;16.61;94.76;101997.66;5012354;28;20440;-43
2022/06/11 00:08:14;;;;;;;15.30;7.83;;;;;;;16.58;94.83;101985.44;5011918;28;20465;-44
2022/06/11 00:10:41;;;;;;;13.37;8.37;;;;;;;16.57;95.04;101991.03;5012238;28;20460;-47
2022/06/11 00:13:09;;;;;;;23.63;8.20;;;;;;;16.54;95.02;101986.06;5012437;28;20432;-44
2022/06/11 00:15:38;;;;;;;20.23;10.23;;;;;;;16.50;95.14;101984.78;5012305;28;20483;-44
2022/06/11 00:18:07;;;;;;;16.87;9.30;;;;;;;16.48;95.59;101987.69;5011710;28;20488;-41
2022/06/11 00:20:35;;;;;;;23.33;10.37;;;;;;;16.46;95.64;101983.53;5011924;28;20437;-48
2022/06/11 00:23:03;;;;;;;12.90;9.57;;;;;;;16.45;95.85;101976.50;5011805;28;20445;-44
2022/06/11 00:25:34;;;;;;;14.70;9.80;;;;;;;16.44;95.79;101978.34;5012333;28;20875;-42
2022/06/11 00:28:03;;;;;;;23.37;11.37;;;;;;;16.42;96.04;101979.59;5011830;28;20507;-44
2022/06/11 00:30:31;;;;;;;20.47;9.80;;;;;;;16.39;96.10;101972.78;5011584;28;20440;-47
2022/06/11 00:32:59;;;;;;;12.73;9.00;;;;;;;16.37;96.17;101965.91;5012093;28;20440;-45
2022/06/11 00:35:29;;;;;;;20.83;8.80;;;;;;;16.36;96.20;101966.97;5012188;28;20437;-46
2022/06/11 00:37:57;;;;;;;16.37;9.60;;;;;;;16.34;96.25;101974.38;5011740;28;20476;-47
2022/06/11 00:40:27;;;;;;;17.17;9.40;;;;;;;16.34;96.55;101967.16;5011696;28;20437;-46
2022/06/11 00:42:56;;;;;;;20.20;8.90;;;;;;;16.29;96.54;101969.63;5012064;28;20810;-46
2022/06/11 00:45:31;;;;;;;20.83;9.23;;;;;;;16.28;96.83;101959.88;5011752;28;20440;-44
2022/06/11 00:48:02;;;;;;;25.53;10.40;;;;;;;16.25;96.78;101954.06;5011722;28;20469;-46
2022/06/11 00:50:37;;;;;;;16.17;9.23;;;;;;;16.24;97.03;101957.81;5011794;28;20786;-44
2022/06/11 00:53:11;;;;;;;21.43;10.00;;;;;;;16.23;97.03;101962.38;5011941;28;20436;-44
2022/06/11 00:55:42;;;;;;;15.20;9.17;;;;;;;16.23;97.04;101958.84;5011836;28;20428;-44
2022/06/11 00:58:15;;;;;;;19.87;9.87;;;;;;;16.18;97.09;101954.09;5011262;28;20475;-46
2022/06/11 01:00:46;;;;;;;26.40;9.37;;;;;;;16.20;97.20;101961.94;5012029;28;20781;-45
2022/06/11 01:03:18;;;;;;;10.90;8.70;;;;;;;16.20;97.13;101956.56;5011896;28;20499;-47
2022/06/11 01:05:50;;;;;;;17.03;9.23;;;;;;;16.23;97.27;101964.22;5011773;28;20433;-44
2022/06/11 01:08:39;;;;;;;14.23;9.10;;;;;;;16.23;97.18;101953.47;5011247;28;20472;-47
2022/06/11 01:11:54;;;;;;;18.80;10.57;;;;;;;16.18;97.21;101948.72;5011466;28;20978;-44
2022/06/11 01:14:40;;;;;;;17.57;8.80;;;;;;;16.17;97.31;101947.03;5011476;28;20469;-44
2022/06/11 01:17:21;;;;;;;12.80;8.83;;;;;;;16.15;97.42;101949.13;5007542;28;20477;-45
2022/06/11 01:20:09;;;;;;;16.60;11.23;;;;;;;16.14;97.44;101946.63;4993588;28;20464;-49
2022/06/11 01:22:53;;;;;;;19.20;9.70;;;;;;;16.15;97.48;101934.81;4992006;28;20468;-47
2022/06/11 01:25:30;;;;;;;15.93;9.67;;;;;;;16.16;97.44;101934.59;4992137;28;20430;-42
2022/06/11 01:28:18;;;;;;;23.20;10.40;;;;;;;16.18;97.60;101931.72;4991582;28;20469;-44
2022/06/11 01:30:51;;;;;;;17.40;9.97;;;;;;;16.17;97.51;101930.06;4991585;28;20466;-44
2022/06/11 01:33:26;;;;;;;19.03;11.30;;;;;;;16.18;97.48;101934.41;5001763;28;20438;-46
2022/06/11 01:36:00;;;;;;;16.03;10.13;;;;;;;16.17;97.62;101928.19;5012011;28;20431;-48
2022/06/11 01:38:31;;;;;;;17.33;10.00;;;;;;;16.17;97.63;101927.38;5014694;28;20479;-46
2022/06/11 01:41:19;;;;;;;16.53;11.10;;;;;;;16.16;97.61;101920.34;5014864;28;20475;-50
2022/06/11 01:43:48;;;;;;;25.63;12.43;;;;;;;16.12;97.68;101921.78;5014876;28;20447;-45
2022/06/11 01:46:20;;;;;;;15.63;10.40;;;;;;;16.10;97.75;101916.59;5015217;28;20531;-43
2022/06/11 01:48:54;;;;;;;16.93;10.30;;;;;;;16.10;97.67;101918.47;5014472;28;20464;-48
2022/06/11 01:51:28;;;;;;;25.57;11.23;;;;;;;16.08;97.72;101910.59;5014743;28;20452;-46
2022/06/11 01:54:20;;;;;;;27.00;11.90;;;;;;;16.07;97.67;101917.00;5014849;28;20433;-43
2022/06/11 01:57:06;;;;;;;14.57;9.77;;;;;;;16.08;97.57;101918.66;5014904;28;20527;-46
2022/06/11 01:59:51;;;;;;;23.90;11.93;;;;;;;16.04;97.48;101902.09;5014279;28;20461;-42
2022/06/11 02:02:35;;;;;;;19.17;10.33;;;;;;;16.01;97.61;101913.25;5014411;28;20998;-46
2022/06/11 02:05:09;;;;;;;21.23;11.50;;;;;;;16.01;97.43;101913.25;5014798;28;20437;-45
2022/06/11 02:07:46;;;;;;;14.50;9.23;;;;;;;16.01;97.29;101904.34;5014270;28;20464;-42
2022/06/11 02:10:21;;;;;;;18.87;12.10;;;;;;;16.01;97.26;101898.97;5014435;28;20972;-42
2022/06/11 02:12:54;;;;;;;20.27;11.47;;;;;;;16.00;97.21;101900.84;5014370;28;20443;-49
2022/06/11 02:15:28;;;;;;;18.50;12.50;;;;;;;15.98;97.02;101894.84;5014712;28;20440;-42
2022/06/11 02:18:02;;;;;;;20.40;12.97;;;;;;;15.96;96.99;101896.06;5014077;28;20471;-45
2022/06/11 02:20:35;;;;;;;21.83;13.40;;;;;;;15.95;96.91;101900.63;5014033;28;20961;-43
2022/06/11 02:23:08;;;;;;;23.63;12.17;;;;;;;15.99;96.72;101903.75;5014500;28;20644;-42
2022/06/11 02:25:39;;;;;;;18.30;12.57;;;;;;;15.98;96.47;101905.59;5014273;28;20430;-45
2022/06/11 02:28:17;;;;;;;13.40;10.60;;;;;;;16.03;96.58;101900.44;5013940;28;20471;-44
2022/06/11 02:30:47;;;;;;;20.83;12.70;;;;;;;16.04;96.83;101899.41;5013807;28;20460;-43
2022/06/11 02:33:18;;;;;;;14.97;11.80;;;;;;;16.05;97.23;101901.06;5003174;28;20970;-45
2022/06/11 02:35:54;;;;;;;23.23;12.87;;;;;;;16.04;97.29;101895.88;5009384;28;20436;-44
2022/06/11 02:38:26;;;;;;;21.80;12.77;;;;;;;16.04;97.31;101899.41;5013585;28;20468;-47
2022/06/11 02:40:58;;;;;;;15.60;12.00;;;;;;;16.04;97.27;101904.78;5013596;28;20449;-48
2022/06/11 02:43:26;;;;;;;17.23;12.63;;;;;;;16.01;97.45;101904.34;5013939;28;20823;-45
2022/06/11 02:45:54;;;;;;;26.00;14.70;;;;;;;15.96;97.64;101902.28;5006451;28;20518;-43
2022/06/11 02:48:24;;;;;;;18.33;13.00;;;;;;;15.96;97.18;101906.84;5005097;28;20461;-42
2022/06/11 02:50:53;;;;;;;31.60;14.03;;;;;;;15.95;97.32;101907.84;5014037;28;20449;-48
2022/06/11 02:53:20;;;;;;;20.47;12.07;;;;;;;15.95;97.25;101907.84;5013716;28;20957;-42
2022/06/11 02:55:48;;;;;;;19.60;13.80;;;;;;;15.94;97.50;101907.06;5013776;28;20437;-44
2022/06/11 02:58:15;;;;;;;18.13;12.60;;;;;;;15.92;97.52;101909.09;5013157;28;20480;-44
2022/06/11 03:00:47;;;;;;;18.20;13.43;;;;;;;15.92;97.61;101911.78;5013249;28;20449;-43
2022/06/11 03:03:15;;;;;;;25.90;14.17;;;;;;;15.92;97.73;101908.25;5013780;28;20449;-42
2022/06/11 03:05:45;;;;;;;21.90;14.77;;;;;;;15.91;97.39;101909.31;5013702;28;20437;-42
2022/06/11 03:08:14;;;;;;;14.80;11.40;;;;;;;15.95;97.04;101915.94;5013132;28;20829;-42
2022/06/11 03:10:41;;;;;;;23.80;13.17;;;;;;;15.97;97.04;101916.56;5013177;28;20435;-42
2022/06/11 03:13:09;;;;;;;19.00;13.60;;;;;;;15.98;97.05;101912.84;5013346;28;20437;-45
2022/06/11 03:15:37;;;;;;;24.43;14.40;;;;;;;15.98;97.18;101924.44;5013748;28;20429;-42
2022/06/11 03:18:05;;;;;;;17.37;13.70;;;;;;;16.01;97.17;101925.88;5012830;28;20854;-45
2022/06/11 03:20:33;;;;;;;15.53;12.90;;;;;;;16.02;97.25;101930.22;5013186;28;21017;-44
2022/06/11 03:23:02;;;;;;;18.20;12.37;;;;;;;16.04;97.27;101925.47;5013238;28;20826;-48
2022/06/11 03:25:29;;;;;;;13.70;12.00;;;;;;;16.04;97.11;101918.22;5013116;28;20429;-42
2022/06/11 03:27:57;;;;;;;16.40;12.93;;;;;;;16.09;97.15;101906.03;5012559;28;20479;-48
2022/06/11 03:30:26;;;;;;;15.63;11.50;;;;;;;16.11;97.16;101894.03;5012556;28;20437;-44
2022/06/11 03:32:54;;;;;;;19.40;12.30;;;;;;;16.12;97.63;101889.47;5005239;28;20441;-47
2022/06/11 03:35:22;;;;;;;14.13;11.93;;;;;;;16.15;97.68;101897.16;5001206;28;20437;-41
2022/06/11 03:37:49;;;;;;;17.70;13.13;;;;;;;16.18;97.74;101908.34;4992952;28;20486;-46
2022/06/11 03:40:19;;;;;;;21.60;13.23;;;;;;;16.25;97.86;101902.94;4993002;28;20796;-45
2022/06/11 03:42:46;;;;;;;21.53;11.43;;;;;;;16.37;97.70;101903.97;4993103;28;20986;-46
2022/06/11 03:45:15;;;;;;;14.63;10.30;;;;;;;16.51;97.67;101900.28;4993360;28;20442;-43
2022/06/11 03:47:43;;;;;;;18.03;10.67;;;;;;;16.68;97.53;101898.00;4992856;28;20462;-45
2022/06/11 03:50:18;;;;;;;14.47;10.40;;;;;;;16.81;97.87;101895.31;4993108;28;20442;-45
2022/06/11 03:52:46;;;;;;;12.90;10.83;;;;;;;16.95;98.11;101888.84;4992977;28;20461;-44
2022/06/11 03:55:14;;;;;;;18.77;11.50;;;;;;;17.07;98.70;101896.09;4992893;28;20433;-42
2022/06/11 03:57:44;;;;;;;18.53;10.87;;;;;;;17.20;98.51;101900.63;4992337;28;20461;-44
2022/06/11 04:00:15;;;;;;;12.43;9.47;;;;;;;17.36;98.62;101891.22;4992793;28;20946;-42
2022/06/11 04:02:43;;;;;;;22.03;11.17;;;;;;;17.53;98.33;101898.59;4992879;28;20465;-42
2022/06/11 04:05:11;;;;;;;14.60;9.53;;;;;;;17.77;98.17;101894.38;4992933;28;20433;-45
2022/06/11 04:07:38;;;;;;;14.40;9.97;;;;;;;18.07;98.02;101897.34;4992295;28;20529;-42
2022/06/11 04:10:08;;;;;;;15.03;9.77;;;;;;;18.23;97.45;101881.41;4992866;28;20440;-44
2022/06/11 04:12:36;;;;;;;16.40;10.90;;;;;;;18.25;95.99;101883.88;4992732;28;20457;-42
2022/06/11 04:15:06;;;;;;;16.43;9.93;;;;;;;18.26;95.37;101880.16;4992757;28;20437;-46
2022/06/11 04:17:34;;;;;;;11.87;8.90;;;;;;;18.28;94.31;101883.44;4992237;28;21391;-47
2022/06/11 04:20:01;;;;;;;10.87;9.20;;;;;;;18.29;93.88;101874.31;4992487;28;20500;-42
2022/06/11 04:22:29;;;;;;;12.20;9.13;;;;;;;18.35;93.75;101875.28;4992701;28;20453;-47
2022/06/11 04:24:57;;;;;;;14.17;9.60;;;;;;;18.55;94.14;101878.69;4992626;28;20440;-42
2022/06/11 04:27:25;;;;;;;15.87;9.40;;;;;;;18.95;94.61;101889.94;4992041;28;20437;-42
2022/06/11 04:29:55;;;;;;;8.33;7.30;;;;;;;20.15;96.72;101891.75;4992512;28;20434;-45
2022/06/11 04:32:26;;;;;;;11.30;7.33;;;;;;;21.19;92.97;101889.13;4992103;28;20483;-49
2022/06/11 04:34:55;;;;;;;7.30;6.57;;;;;;;21.35;80.17;101884.84;5008836;28;20478;-44
2022/06/11 04:37:28;;;;;;;11.30;8.67;;;;;;;21.10;76.52;101890.56;5011695;28;20420;-46
2022/06/11 04:39:58;;;;;;;12.17;8.00;;;;;;;20.87;76.93;101879.72;5012265;28;20461;-43
2022/06/11 04:42:27;;;;;;;12.77;7.57;;;;;;;20.61;76.98;101880.19;5012174;28;20800;-42
2022/06/11 04:44:56;;;;;;;13.27;8.73;;;;;;;20.38;77.83;101881.81;5011840;28;20432;-48
2022/06/11 04:47:27;;;;;;;11.47;6.60;;;;;;;20.21;78.54;101888.94;5011684;28;20436;-43
2022/06/11 04:49:58;;;;;;;12.30;6.90;;;;;;;20.05;78.97;101881.47;5011901;28;20433;-42
2022/06/11 04:52:26;;;;;;;14.33;7.97;;;;;;;20.00;79.96;101878.66;5011561;28;20456;-43
2022/06/11 04:54:54;;;;;;;13.83;8.40;;;;;;;20.33;81.46;101889.81;5011741;28;20440;-42
2022/06/11 04:57:23;;;;;;;11.97;8.03;;;;;;;20.66;81.90;101883.03;5011616;28;20443;-42
2022/06/11 04:59:50;;;;;;;17.47;8.33;;;;;;;20.83;78.59;101889.38;5011675;28;20469;-45
2022/06/11 05:02:18;;;;;;;7.30;6.70;;;;;;;20.95;77.42;101876.63;5011629;28;20460;-45
2022/06/11 05:04:47;;;;;;;9.93;7.90;;;;;;;20.84;75.52;101886.44;5011920;28;20468;-43
2022/06/11 05:07:15;;;;;;;10.30;7.83;;;;;;;20.67;75.67;101887.38;5011728;28;20437;-44
2022/06/11 05:09:43;;;;;;;9.20;7.47;;;;;;;20.46;75.85;101883.34;5015709;28;20543;-42
2022/06/11 05:12:11;;;;;;;10.67;8.30;;;;;;;20.27;76.64;101890.75;5015220;28;21099;-42
2022/06/11 05:14:39;;;;;;;11.77;8.40;;;;;;;20.06;77.47;101887.72;5015781;28;20436;-46
2022/06/11 05:17:07;;;;;;;14.33;10.10;;;;;;;19.92;78.86;101891.69;5015661;28;20433;-42
2022/06/11 05:19:35;;;;;;;12.23;9.93;;;;;;;19.81;80.12;101888.69;5015059;28;20476;-46
2022/06/11 05:22:05;;;;;;;10.63;9.50;;;;;;;19.72;81.19;101887.38;5015117;28;20448;-42
2022/06/11 05:24:34;;;;;;;13.10;10.60;;;;;;;19.56;81.71;101898.81;5015611;28;20436;-44
2022/06/11 05:27:07;;;;;;;12.60;11.20;;;;;;;19.46;82.86;101887.72;5015751;28;20437;-47
2022/06/11 05:29:37;;;;;;;15.00;12.80;;;;;;;19.39;83.79;101896.94;5014869;28;20464;-46
2022/06/11 05:32:05;;;;;;;12.73;11.20;;;;;;;19.48;85.65;101890.19;5007096;28;20456;-45
2022/06/11 05:34:33;;;;;;;13.00;11.60;;;;;;;19.40;85.43;101893.22;5007157;28;20808;-48
2022/06/11 05:37:00;;;;;;;14.33;11.77;;;;;;;19.36;86.14;101898.22;5015069;28;20447;-47
2022/06/11 05:39:30;;;;;;;13.40;12.30;;;;;;;19.31;86.33;101890.78;5014665;28;20503;-44
2022/06/11 05:41:58;;;;;;;18.80;13.90;;;;;;;19.25;86.73;101888.16;5014749;28;21000;-45
2022/06/11 05:44:26;;;;;;;13.90;12.33;;;;;;;19.15;86.82;101898.66;5015182;28;20438;-42
2022/06/11 05:46:54;;;;;;;16.27;14.70;;;;;;;19.10;87.39;101901.22;5015095;28;20433;-45
2022/06/11 05:49:26;;;;;;;17.33;14.60;;;;;;;18.95;87.44;101898.88;5014383;28;20519;-47
2022/06/11 05:51:57;;;;;;;16.60;14.80;;;;;;;18.90;88.88;101900.63;5014771;28;20456;-45
2022/06/11 05:54:28;;;;;;;20.53;15.03;;;;;;;18.90;89.63;101895.22;5015005;28;20439;-48
2022/06/11 05:56:58;;;;;;;17.07;15.27;;;;;;;19.11;91.67;101900.19;5015087;28;20419;-44
2022/06/11 05:59:30;;;;;;;15.77;14.10;;;;;;;19.81;94.20;101898.69;5014192;28;20479;-49
2022/06/11 06:02:03;;;;;;;17.97;16.03;;;;;;;19.95;91.04;101892.03;5014526;28;20444;-42
2022/06/11 06:04:31;;;;;;;15.20;13.50;;;;;;;20.05;89.40;101900.44;5014994;28;20436;-48
2022/06/11 06:06:59;;;;;;;15.20;13.67;;;;;;;20.24;88.61;101904.75;5014671;28;20432;-47
2022/06/11 06:09:26;;;;;;;15.80;14.33;;;;;;;20.31;86.98;101893.81;5014101;28;20834;-42
2022/06/11 06:11:54;;;;;;;14.60;13.10;;;;;;;20.43;87.20;101894.66;5014179;28;20992;-42
2022/06/11 06:14:23;;;;;;;17.33;15.73;;;;;;;20.56;86.83;101893.59;5014396;28;20442;-48
2022/06/11 06:16:51;;;;;;;14.67;13.00;;;;;;;20.78;86.43;101910.97;5014388;28;20437;-47
2022/06/11 06:19:18;;;;;;;15.80;14.40;;;;;;;20.87;84.98;101917.69;5012869;28;20481;-44
2022/06/11 06:21:46;;;;;;;16.53;14.60;;;;;;;20.96;84.37;101910.84;5014023;28;20974;-46
2022/06/11 06:24:14;;;;;;;17.20;15.60;;;;;;;21.27;85.13;101909.63;5014562;28;20468;-43
2022/06/11 06:26:42;;;;;;;14.40;12.57;;;;;;;22.10;83.92;101920.00;5014237;28;20429;-44
2022/06/11 06:29:10;;;;;;;14.67;13.27;;;;;;;21.87;78.59;101916.28;5013649;28;20460;-42
2022/06/11 06:31:39;;;;;;;15.53;14.13;;;;;;;21.75;77.75;101910.06;5008297;28;20466;-43
2022/06/11 06:34:07;;;;;;;14.57;13.17;;;;;;;21.68;78.11;101911.31;5002758;28;20855;-42
2022/06/11 06:36:34;;;;;;;16.10;14.60;;;;;;;21.54;78.32;101908.03;4994631;28;20830;-47
2022/06/11 06:39:02;;;;;;;19.53;16.20;;;;;;;21.42;78.23;101907.22;4994229;28;20465;-44
2022/06/11 06:41:29;;;;;;;16.20;14.03;;;;;;;21.29;78.73;101912.94;4993984;28;20481;-44
2022/06/11 06:43:57;;;;;;;18.30;13.47;;;;;;;21.10;78.83;101911.44;4994792;28;20434;-44
2022/06/11 06:46:25;;;;;;;15.93;14.57;;;;;;;20.95;78.92;101920.03;4994375;28;21120;-43
2022/06/11 06:48:54;;;;;;;17.33;14.20;;;;;;;20.74;78.85;101907.88;4993975;28;20515;-43
2022/06/11 06:51:22;;;;;;;13.17;12.10;;;;;;;20.76;80.90;101905.75;4994393;28;20476;-42
2022/06/11 06:53:50;;;;;;;14.00;12.60;;;;;;;20.84;81.70;101905.41;4994109;28;20958;-44
2022/06/11 06:56:18;;;;;;;13.77;12.47;;;;;;;21.05;82.26;101905.88;4994044;28;20784;-46
2022/06/11 06:58:45;;;;;;;14.47;12.70;;;;;;;21.34;82.08;101905.72;4993789;28;20468;-42
2022/06/11 07:01:13;;;;;;;13.40;11.73;;;;;;;21.60;81.46;101911.66;4993980;28;20481;-44
2022/06/11 07:03:41;;;;;;;13.00;11.87;;;;;;;21.82;79.93;101912.66;4994112;28;20467;-44
2022/06/11 07:06:10;;;;;;;15.17;13.43;;;;;;;21.94;76.96;101908.84;4993888;28;20483;-43
2022/06/11 07:08:37;;;;;;;19.13;12.50;;;;;;;22.19;77.62;101903.03;4993455;28;20462;-42
2022/06/11 07:11:05;;;;;;;13.77;12.47;;;;;;;22.43;75.61;101906.44;4994134;28;20483;-46
2022/06/11 07:13:33;;;;;;;12.77;11.50;;;;;;;22.94;74.19;101899.91;4994042;28;20439;-45
2022/06/11 07:16:04;;;;;;;13.30;12.10;;;;;;;24.58;77.77;101895.75;4993931;28;20524;-45
2022/06/11 07:18:37;;;;;;;11.60;9.30;;;;;;;25.88;70.58;101893.13;4993383;28;20461;-45
2022/06/11 07:21:09;;;;;;;9.13;8.47;;;;;;;27.19;66.02;101893.91;4993315;28;20556;-43
2022/06/11 07:23:43;;;;;;;10.93;9.90;;;;;;;28.01;55.42;101893.22;4993667;28;20935;-48
2022/06/11 07:26:15;;;;;;;10.73;7.67;;;;;;;28.50;51.38;101889.53;4993779;28;20460;-48
2022/06/11 07:28:46;;;;;;;7.73;7.00;;;;;;;29.26;50.35;101888.78;4993334;28;20461;-47
2022/06/11 07:31:14;;;;;;;10.87;6.37;;;;;;;29.85;50.58;101891.00;4993454;28;20464;-46
2022/06/11 07:33:43;;;;;;;8.07;5.80;;;;;;;30.32;48.61;101893.53;5001516;28;20190;-47
2022/06/11 07:36:12;;;;;;;5.37;4.90;;;;;;;30.59;45.64;101892.81;5012226;28;20209;-44
2022/06/11 07:38:41;;;;;;;5.03;4.53;;;;;;;30.16;43.50;101890.25;5012627;28;20225;-43
2022/06/11 07:41:09;;;;;;;6.87;5.37;;;;;;;29.03;41.10;101893.16;5012605;28;20225;-46
2022/06/11 07:43:37;;;;;;;6.63;5.47;;;;;;;28.07;44.58;101895.94;5013056;28;20229;-48
2022/06/11 07:46:05;;;;;;;6.37;5.97;;;;;;;27.12;45.72;101895.31;5012804;28;20225;-45
2022/06/11 07:48:33;;;;;;;7.53;6.73;;;;;;;26.02;47.56;101895.06;5012637;28;20225;-46
2022/06/11 07:51:00;;;;;;;7.77;6.90;;;;;;;26.04;49.13;101900.28;5012826;28;20452;-45
2022/06/11 07:53:28;;;;;;;7.10;6.50;;;;;;;25.67;50.18;101903.19;5012779;28;20436;-43
2022/06/11 07:55:57;;;;;;;11.20;8.30;;;;;;;25.15;49.55;101898.59;5012773;28;20428;-49
2022/06/11 07:58:27;;;;;;;9.30;7.33;;;;;;;24.40;50.59;101892.63;5012345;28;20572;-44
2022/06/11 08:00:55;;;;;;;7.93;7.43;;;;;;;24.20;52.97;101896.81;5012124;28;20567;-49
2022/06/11 08:03:26;;;;;;;7.93;7.20;;;;;;;23.87;52.73;101893.44;5012977;28;20812;-45
2022/06/11 08:05:54;;;;;;;11.17;7.50;;;;;;;24.03;52.57;101892.53;5012570;28;20463;-46
2022/06/11 08:08:22;;;;;;;7.47;6.80;;;;;;;24.30;51.37;101898.00;5012033;28;20468;-49
2022/06/11 08:10:54;;;;;;;10.20;7.50;;;;;;;24.29;52.43;101899.06;5012106;28;21008;-48
2022/06/11 08:13:23;;;;;;;8.67;7.50;;;;;;;24.26;53.22;101905.84;5012122;28;20445;-45
2022/06/11 08:15:52;;;;;;;7.40;6.60;;;;;;;24.05;52.70;101910.28;5012425;28;20460;-46
2022/06/11 08:18:21;;;;;;;8.53;5.40;;;;;;;24.05;52.96;101915.72;5011861;28;20519;-47
2022/06/11 08:20:50;;;;;;;9.77;6.00;;;;;;;24.15;53.31;101918.59;5011761;28;20502;-45
2022/06/11 08:23:18;;;;;;;10.70;5.47;;;;;;;24.25;52.88;101926.03;5011929;28;20502;-47
2022/06/11 08:25:46;;;;;;;8.27;5.43;;;;;;;23.96;52.02;101938.22;5011823;28;21111;-47
2022/06/11 08:28:16;;;;;;;7.53;5.63;;;;;;;24.01;51.69;101930.13;5010678;28;21412;-46
2022/06/11 08:30:47;;;;;;;12.10;5.53;;;;;;;24.07;51.71;101932.63;5011921;28;20486;-43
2022/06/11 08:33:15;;;;;;;12.43;6.10;;;;;;;24.02;50.75;101931.75;5001140;28;20432;-43
2022/06/11 08:35:44;;;;;;;9.87;5.63;;;;;;;23.96;51.00;101940.97;5007105;28;20428;-46
2022/06/11 08:38:12;;;;;;;14.50;6.47;;;;;;;23.72;52.31;101932.25;5011515;28;20470;-43
2022/06/11 08:40:43;;;;;;;8.63;4.97;;;;;;;24.38;50.98;101931.03;5011895;28;20473;-44
2022/06/11 08:43:19;;;;;;;5.47;4.83;;;;;;;24.60;49.04;101939.16;5011033;28;20436;-45
2022/06/11 08:45:51;;;;;;;10.70;5.30;;;;;;;24.83;48.07;101938.78;5012140;28;20436;-47
2022/06/11 08:48:29;;;;;;;12.53;5.90;;;;;;;25.11;47.53;101938.44;5011558;28;20464;-47
2022/06/11 08:51:04;;;;;;;7.20;6.53;;;;;;;25.11;48.37;101946.63;5011538;28;20456;-48
2022/06/11 08:53:34;;;;;;;10.50;5.30;;;;;;;24.57;47.92;101945.94;5012083;28;20801;-46
2022/06/11 08:56:02;;;;;;;9.97;5.63;;;;;;;24.62;48.81;101947.88;5011725;28;20433;-48
2022/06/11 08:58:42;;;;;;;9.70;5.27;;;;;;;24.49;48.19;101949.13;5010697;28;20457;-46
2022/06/11 09:01:19;;;;;;;10.00;6.00;;;;;;;24.15;48.95;101950.47;5011269;28;20502;-47
2022/06/11 09:04:04;;;;;;;9.30;5.63;;;;;;;24.35;49.14;101958.00;5011922;28;20440;-43
2022/06/11 09:06:54;;;;;;;11.40;5.60;;;;;;;24.50;48.48;101950.78;5011866;28;20487;-49
2022/06/11 09:09:35;;;;;;;10.03;5.77;;;;;;;24.40;48.59;101952.63;5011114;28;20465;-46
2022/06/11 09:12:23;;;;;;;11.40;6.33;;;;;;;24.45;48.34;101949.94;5011259;28;20451;-46
2022/06/11 09:15:09;;;;;;;9.83;5.37;;;;;;;24.06;49.04;101955.53;5011656;28;20435;-45
2022/06/11 09:17:56;;;;;;;11.80;6.10;;;;;;;24.15;49.91;101958.63;5011110;28;20468;-46
2022/06/11 09:20:36;;;;;;;10.13;5.47;;;;;;;24.21;49.38;101969.34;5011334;28;20443;-44
2022/06/11 09:23:20;;;;;;;13.20;6.20;;;;;;;23.74;50.36;101962.81;5011577;28;20437;-47
2022/06/11 09:26:05;;;;;;;12.07;6.50;;;;;;;23.55;52.00;101964.19;5011201;28;20790;-47
2022/06/11 09:28:40;;;;;;;15.77;6.13;;;;;;;23.23;52.09;101971.34;5010884;28;20470;-46
2022/06/11 09:31:16;;;;;;;13.23;6.37;;;;;;;23.08;52.94;101969.22;5009399;28;20462;-44
2022/06/11 09:33:52;;;;;;;11.67;6.10;;;;;;;23.42;52.96;101976.25;5000080;28;20858;-47
2022/06/11 09:36:32;;;;;;;15.23;7.00;;;;;;;23.12;54.54;101964.91;5011359;28;20450;-48
2022/06/11 09:39:10;;;;;;;19.03;7.63;;;;;;;23.29;53.65;101970.34;5011028;28;20467;-46
2022/06/11 09:41:48;;;;;;;13.20;6.50;;;;;;;23.60;53.45;101970.50;5010559;28;20981;-44
2022/06/11 09:44:29;;;;;;;10.17;5.97;;;;;;;24.02;51.93;101965.28;5011420;28;20432;-49
2022/06/11 09:47:02;;;;;;;11.67;6.20;;;;;;;24.10;51.90;101972.19;5011167;28;20456;-46
2022/06/11 09:49:42;;;;;;;7.83;5.70;;;;;;;23.89;52.31;101975.78;5010725;28;20467;-50
2022/06/11 09:52:30;;;;;;;12.03;5.73;;;;;;;23.77;51.88;101970.47;5010952;28;20946;-46
2022/06/11 09:55:08;;;;;;;11.50;5.80;;;;;;;23.52;52.63;101973.69;5014016;28;20918;-47
2022/06/11 09:57:43;;;;;;;15.03;6.20;;;;;;;23.63;53.11;101969.19;5014255;28;20468;-50
2022/06/11 10:00:21;;;;;;;12.20;5.60;;;;;;;23.77;51.77;101977.81;5014554;28;20428;-45
2022/06/11 10:02:56;;;;;;;9.33;5.90;;;;;;;23.97;51.08;101970.69;5014403;28;20486;-48
2022/06/11 10:05:32;;;;;;;10.73;5.53;;;;;;;24.38;50.99;101965.66;5014917;28;20428;-45
2022/06/11 10:08:17;;;;;;;7.17;5.70;;;;;;;24.70;51.62;101975.50;5014161;28;20471;-49
2022/06/11 10:10:46;;;;;;;15.03;6.40;;;;;;;24.74;49.99;101978.53;5014478;28;20448;-51
2022/06/11 10:13:26;;;;;;;8.33;5.80;;;;;;;25.03;50.14;101973.59;5014687;28;20428;-44
2022/06/11 10:15:55;;;;;;;6.87;5.87;;;;;;;25.01;50.27;101986.66;5014259;28;20432;-44
2022/06/11 10:18:30;;;;;;;12.90;6.53;;;;;;;24.69;49.36;101981.22;5013872;28;20471;-48
2022/06/11 10:21:05;;;;;;;10.67;5.93;;;;;;;24.74;50.79;101983.97;5014252;28;20447;-48
2022/06/11 10:23:38;;;;;;;14.07;7.53;;;;;;;24.45;50.00;101982.66;5014692;28;20437;-45
2022/06/11 10:26:11;;;;;;;10.17;6.50;;;;;;;24.38;50.34;101985.56;5014213;28;20428;-46
2022/06/11 10:28:41;;;;;;;13.57;8.30;;;;;;;24.39;50.75;101986.41;5013619;28;20463;-47
2022/06/11 10:31:13;;;;;;;10.37;6.37;;;;;;;24.56;50.83;101987.94;5011868;28;20464;-47
2022/06/11 10:33:48;;;;;;;11.63;7.17;;;;;;;24.54;50.94;101995.56;5002725;28;20456;-43
2022/06/11 10:36:21;;;;;;;12.90;6.93;;;;;;;24.56;51.80;101998.84;5013426;28;20432;-44
2022/06/11 10:38:54;;;;;;;15.30;7.63;;;;;;;25.05;50.30;101996.00;5013401;28;20997;-48
2022/06/11 10:41:36;;;;;;;19.23;7.50;;;;;;;24.82;49.94;102007.28;5013540;28;20449;-50
2022/06/11 10:44:21;;;;;;;17.30;7.67;;;;;;;24.60;49.82;101996.41;5013980;28;20441;-48
2022/06/11 10:46:49;;;;;;;14.07;7.53;;;;;;;24.57;50.73;101997.75;5013043;28;20433;-48
2022/06/11 10:49:22;;;;;;;12.20;7.83;;;;;;;24.68;51.17;102001.38;5013861;28;20468;-46
2022/06/11 10:52:01;;;;;;;16.77;7.83;;;;;;;24.84;51.14;101997.75;5013913;28;20456;-48
2022/06/11 10:54:28;;;;;;;17.07;8.27;;;;;;;24.64;50.61;102000.28;5013851;28;20794;-48
2022/06/11 10:57:00;;;;;;;20.40;9.23;;;;;;;24.56;50.75;101998.84;5013841;28;20435;-46
2022/06/11 10:59:34;;;;;;;20.60;8.60;;;;;;;24.48;50.47;102007.50;5013259;28;20460;-48
2022/06/11 11:02:27;;;;;;;17.70;7.43;;;;;;;24.12;51.22;102000.03;5013184;28;20607;-46
2022/06/11 11:04:58;;;;;;;24.43;8.60;;;;;;;24.10;52.18;102005.72;5013080;28;20488;-45
2022/06/11 11:07:40;;;;;;;17.80;7.30;;;;;;;24.02;51.97;102003.44;5013211;28;20433;-45
2022/06/11 11:10:20;;;;;;;18.93;7.47;;;;;;;24.36;51.90;102006.00;5013573;28;20437;-44
2022/06/11 11:12:52;;;;;;;17.40;8.27;;;;;;;24.23;50.88;102009.97;5013817;28;20464;-44
2022/06/11 11:15:25;;;;;;;21.67;8.40;;;;;;;24.30;51.66;102021.50;5013327;28;20823;-43
2022/06/11 11:18:03;;;;;;;14.20;8.07;;;;;;;24.32;50.75;102008.41;5013014;28;20468;-46
2022/06/11 11:20:36;;;;;;;20.77;7.53;;;;;;;24.19;50.85;102006.91;5013025;28;20439;-45
2022/06/11 11:23:25;;;;;;;13.97;7.00;;;;;;;24.25;51.31;102016.00;5013073;28;20484;-45
2022/06/11 11:25:56;;;;;;;17.20;7.90;;;;;;;24.44;50.59;102002.81;5013306;28;20428;-44
2022/06/11 11:28:28;;;;;;;14.33;7.63;;;;;;;24.85;49.81;102009.50;5012970;28;20572;-46
2022/06/11 11:31:04;;;;;;;22.80;8.47;;;;;;;24.78;49.23;102005.03;5012462;28;20467;-44
2022/06/11 11:33:34;;;;;;;14.90;7.90;;;;;;;24.94;50.10;102008.72;5001731;28;20870;-44
2022/06/11 11:36:15;;;;;;;17.20;7.57;;;;;;;25.03;49.66;102014.53;5010774;28;20432;-49